Airfield :
LOGIN :

Register | Disclaimer

   EN    FR    IT 

 










Legend :    VFR   Marginal VFR   IFR   Intensive IFR   Very Intensive IFR
Visi :
Ceiling :
>= 8 km
>= 3000ft
5 to 8 km
1000 to 3000 ft
1500m to 5 km
500 to 1000 ft
800 to 1500m
200 to 500 ft
< 800m
< 200 ft
Symbols :   Thunderstorms  Fog  Heavy snow  Heavy precipitations  Wind > 20 kt
SIGMETs :     Misc.  Thunderstorms  Icing  Turbulence  Mountain Waves  Volcanic Ashes







- Airport Elevation : 374 ft
- IATA code : LIS


LPPT - Lisboa Portela

CURRENT METAR :
  • 262100Z 35009KT CAVOK 18/09 Q1020

EXPIRED METARs :
  • 262030Z 34013KT CAVOK 18/06 Q1019
  • 262000Z 33012KT CAVOK 19/03 Q1019
  • 261930Z 31010KT CAVOK 19/05 Q1019
  • 261900Z 32011KT CAVOK 20/05 Q1019
  • 261830Z 32010KT CAVOK 21/03 Q1019

TAF TAF LPPT
Valid from the 26 at 18:00 until the 28 at 00:00 UTC


261700Z 2618/2724 33013KT CAVOK
BECMG 2622/2624 36005KT
BECMG 2702/2704 VRB03KT
BECMG 2710/2712 25008KT
BECMG 2716/2718 32010KT
No reported NOTAMs for that airfield.



MET'MAP, your aeronautical weather chart ! - Copyright ORBIFLY December 2007 - Disclaimer

ORBIFLY MET'MAP TEAM :

Programming & Development : Alexandra Zaïnal
Concept & Development : Baudouin d'Aumeries
Co-Development & Prog : Marc-Olivier Méhu
Technical & hardware support : Manuel Goepfert

Contact : metmap@orbifly.com




SOURCES & CREDITS :

   NOAA